createdAt,value
2017-09-22T13:11:39.062Z,180
2017-09-22T13:12:40.942Z,180
2017-09-22T13:13:42.826Z,180
2017-09-22T13:14:44.707Z,180
2017-09-22T13:15:46.531Z,175
2017-09-22T13:16:48.363Z,170
2017-09-22T13:17:50.241Z,170
2017-09-22T13:18:52.136Z,165
2017-09-22T13:19:54.027Z,175
2017-09-22T13:21:08.191Z,175
2017-09-22T13:22:10.105Z,160
2017-09-22T13:23:11.967Z,155
2017-09-22T13:24:13.856Z,140
2017-09-22T13:25:15.741Z,130
2017-09-22T13:26:17.563Z,120
2017-09-22T13:27:19.452Z,110
2017-09-22T13:28:21.351Z,100
2017-09-22T13:29:23.239Z,100
2017-09-22T13:30:37.406Z,95
2017-09-22T13:31:39.309Z,95
2017-09-22T13:32:41.185Z,95
2017-09-22T13:33:43.077Z,90
2017-09-22T13:34:44.912Z,90
2017-09-22T13:35:46.765Z,95
2017-09-22T13:36:48.650Z,95
2017-09-22T13:37:50.540Z,95
2017-09-22T13:38:52.435Z,95
2017-09-22T13:40:06.606Z,95
2017-09-22T13:41:08.500Z,100
2017-09-22T13:42:10.387Z,105
2017-09-22T13:43:12.279Z,110
2017-09-22T13:44:14.112Z,120
2017-09-22T13:45:15.938Z,120
2017-09-22T13:46:17.831Z,125
2017-09-22T13:47:19.721Z,120
2017-09-22T13:48:21.613Z,125
2017-09-22T13:49:35.783Z,125
2017-09-22T13:50:37.679Z,130
2017-09-22T13:51:39.613Z,135
2017-09-22T13:52:41.513Z,130
2017-09-22T13:53:43.335Z,130
2017-09-22T13:54:45.161Z,130
2017-09-22T13:55:47.050Z,130
2017-09-22T13:56:48.939Z,135
2017-09-22T13:57:50.827Z,135
2017-09-22T13:59:05.045Z,135
2017-09-22T14:00:06.939Z,145
2017-09-22T14:01:08.826Z,150
2017-09-22T14:02:10.716Z,165
2017-09-22T14:03:12.546Z,170
2017-09-22T14:04:14.379Z,165
2017-09-22T14:05:16.269Z,170
2017-09-22T14:06:18.162Z,170
2017-09-22T14:07:20.056Z,170
2017-09-22T14:08:34.245Z,160
2017-09-22T14:09:36.136Z,165
2017-09-22T14:10:38.020Z,170
2017-09-22T14:11:39.910Z,170
2017-09-22T14:12:41.739Z,180
2017-09-22T14:13:43.571Z,180
2017-09-22T14:14:45.459Z,190
2017-09-22T14:15:47.351Z,185
2017-09-22T14:16:49.240Z,190
2017-09-22T14:18:03.415Z,200
2017-09-22T14:19:05.306Z,195
2017-09-22T14:20:07.200Z,190
2017-09-22T14:21:09.095Z,185
2017-09-22T14:22:10.928Z,190
2017-09-22T14:23:13.040Z,190
2017-09-22T14:24:14.898Z,185
2017-09-22T14:25:16.790Z,185
2017-09-22T14:26:18.684Z,180
2017-09-22T14:27:32.855Z,160
2017-09-22T14:28:34.756Z,150
2017-09-22T14:29:36.648Z,135
2017-09-22T14:30:38.542Z,125
2017-09-22T14:31:40.374Z,105
2017-09-22T14:32:42.200Z,95
2017-09-22T14:33:44.104Z,85
2017-09-22T14:34:45.995Z,70
2017-09-22T14:35:47.885Z,65
2017-09-22T14:37:02.054Z,55
2017-09-22T14:38:03.948Z,50
2017-09-22T14:39:05.837Z,45
2017-09-22T14:40:07.729Z,45
2017-09-22T14:41:09.560Z,40
2017-09-22T14:42:11.387Z,40
2017-09-22T14:43:13.276Z,40
2017-09-22T14:44:15.178Z,40
2017-09-22T14:45:17.070Z,40
2017-09-22T14:46:31.237Z,45
2017-09-22T14:47:33.128Z,45
2017-09-22T14:48:35.016Z,50
2017-09-22T14:49:36.909Z,55
2017-09-22T14:50:38.741Z,60
2017-09-22T14:51:40.570Z,65
2017-09-22T14:52:42.461Z,70
2017-09-22T14:53:44.353Z,70
2017-09-22T14:54:46.254Z,75
2017-09-22T14:56:00.425Z,80
2017-09-22T14:57:02.313Z,90
2017-09-22T14:58:04.204Z,95
2017-09-22T14:59:06.096Z,95
2017-09-22T15:00:07.926Z,100
2017-09-22T15:01:09.749Z,105
2017-09-22T15:02:11.659Z,110
2017-09-22T15:03:13.543Z,110
2017-09-22T15:04:15.437Z,110
2017-09-22T15:05:29.605Z,110
2017-09-22T15:06:31.497Z,110
2017-09-22T15:07:33.392Z,110
2017-09-22T15:08:35.301Z,105
2017-09-22T15:09:37.123Z,105
2017-09-22T15:10:38.964Z,100
2017-09-22T15:11:40.879Z,100
2017-09-22T15:12:42.783Z,100
2017-09-22T15:13:44.670Z,100
2017-09-22T15:14:58.838Z,105
2017-09-22T15:16:00.758Z,105
2017-09-22T15:17:02.652Z,105
2017-09-22T15:18:04.547Z,105
2017-09-22T15:19:06.393Z,105
2017-09-22T15:20:08.243Z,105
2017-09-22T15:21:10.115Z,105
2017-09-22T15:22:11.968Z,105
2017-09-22T15:23:13.796Z,105
2017-09-22T15:24:27.964Z,105
2017-09-22T15:25:29.859Z,110
2017-09-22T15:26:31.751Z,105
2017-09-22T15:27:33.645Z,105
2017-09-22T15:28:35.476Z,105
2017-09-22T15:29:37.312Z,105
2017-09-22T15:30:39.200Z,105
2017-09-22T15:31:41.090Z,105
2017-09-22T15:32:42.992Z,105
2017-09-22T15:33:57.160Z,105
2017-09-22T15:34:59.055Z,110
2017-09-22T15:36:00.950Z,110
2017-09-22T15:37:02.841Z,110
2017-09-22T15:38:04.682Z,110
2017-09-22T15:39:06.519Z,110
2017-09-22T15:40:08.410Z,115
2017-09-22T15:41:10.302Z,115
2017-09-22T15:42:12.191Z,115
2017-09-22T15:43:26.359Z,115
2017-09-22T15:44:28.251Z,115
2017-09-22T15:45:30.139Z,110
2017-09-22T15:46:32.031Z,110
2017-09-22T15:47:33.871Z,110
2017-09-22T15:48:35.699Z,105
2017-09-22T15:49:37.588Z,105
2017-09-22T15:50:39.479Z,105
2017-09-22T15:51:41.368Z,100
2017-09-22T15:52:55.541Z,100
2017-09-22T15:53:57.430Z,95
2017-09-22T15:54:59.320Z,95
2017-09-22T15:56:01.211Z,95
2017-09-22T15:57:03.050Z,90
2017-09-22T15:58:04.876Z,90
2017-09-22T15:59:06.770Z,90
2017-09-22T16:00:08.660Z,85
2017-09-22T16:01:10.561Z,80
2017-09-22T16:02:24.780Z,80
2017-09-22T16:03:26.670Z,75
2017-09-22T16:04:28.561Z,75
2017-09-22T16:05:30.453Z,75
2017-09-22T16:06:32.282Z,70
2017-09-22T16:07:34.106Z,70
2017-09-22T16:08:36.011Z,65
2017-09-22T16:09:37.904Z,65
2017-09-22T16:10:39.798Z,60
2017-09-22T16:11:53.967Z,60
2017-09-22T16:12:55.857Z,60
2017-09-22T16:13:57.751Z,60
2017-09-22T16:14:59.646Z,55
2017-09-22T16:16:01.472Z,55
2017-09-22T16:17:03.297Z,55
2017-09-22T16:18:05.189Z,50
2017-09-22T16:19:07.081Z,50
2017-09-22T16:20:08.979Z,45
2017-09-22T16:21:23.146Z,45
2017-09-22T16:22:25.040Z,45
2017-09-22T16:23:26.931Z,40
2017-09-22T16:24:28.825Z,40
2017-09-22T16:25:30.659Z,35
2017-09-22T16:26:32.496Z,35
2017-09-22T16:27:34.398Z,30
2017-09-22T16:28:36.299Z,30
2017-09-22T16:29:38.190Z,30
2017-09-22T16:30:52.441Z,30
2017-09-22T16:31:54.331Z,25
2017-09-22T16:32:56.225Z,25
2017-09-22T16:33:58.123Z,25
2017-09-22T16:34:59.967Z,25
2017-09-22T16:36:01.801Z,25
2017-09-22T16:37:03.691Z,20
2017-09-22T16:38:05.583Z,20
2017-09-22T16:39:07.472Z,20
2017-09-22T16:40:21.638Z,20
2017-09-22T16:41:23.533Z,15
2017-09-22T16:42:25.420Z,15
2017-09-22T16:43:27.307Z,15
2017-09-22T16:44:29.135Z,15
2017-09-22T16:45:30.984Z,15
2017-09-22T16:46:32.861Z,15
2017-09-22T16:47:34.710Z,15
2017-09-22T16:48:36.539Z,15
2017-09-22T16:49:50.751Z,10
2017-09-22T16:50:52.643Z,10
2017-09-22T16:51:54.560Z,10
2017-09-22T16:52:56.423Z,10
2017-09-22T16:53:58.254Z,10
2017-09-22T16:55:00.079Z,5
2017-09-22T16:56:01.964Z,5
2017-09-22T16:57:03.849Z,5
2017-09-22T16:58:05.739Z,5
2017-09-22T16:59:19.898Z,5
2017-09-22T17:00:21.790Z,5
2017-09-22T17:01:23.679Z,5
2017-09-22T17:02:25.567Z,5
2017-09-22T17:03:27.588Z,0
2017-09-22T17:04:29.424Z,0
2017-09-22T17:05:31.310Z,0
2017-09-22T17:06:33.205Z,0
2017-09-22T17:07:35.085Z,0
2017-09-22T17:08:49.247Z,0
2017-09-22T17:09:51.133Z,0
2017-09-22T17:10:53.022Z,0
2017-09-22T17:11:54.922Z,0
2017-09-22T17:12:56.736Z,0
2017-09-22T17:13:58.555Z,0
2017-09-22T17:15:00.451Z,0
2017-09-22T17:16:02.341Z,0
2017-09-22T17:17:04.227Z,0
2017-09-22T17:18:18.393Z,0
2017-09-22T17:19:20.281Z,0
2017-09-22T17:20:22.171Z,0
2017-09-22T17:21:24.389Z,0
2017-09-22T17:22:26.285Z,0
2017-09-22T17:23:28.107Z,0
2017-09-22T17:24:29.991Z,0
2017-09-22T17:25:31.875Z,0
2017-09-22T17:26:33.773Z,0
2017-09-22T17:27:47.921Z,0
2017-09-22T17:28:49.812Z,0
2017-09-22T17:29:51.695Z,0
2017-09-22T17:30:53.581Z,0
2017-09-22T17:31:55.405Z,0
2017-09-22T17:32:57.224Z,0
2017-09-22T17:33:59.110Z,0
2017-09-22T17:35:00.996Z,0
2017-09-22T17:36:02.897Z,0
2017-09-22T17:37:17.045Z,0
2017-09-22T17:38:18.932Z,0
2017-09-22T17:39:20.821Z,0
2017-09-22T17:40:22.709Z,0
2017-09-22T17:41:24.531Z,0
2017-09-22T17:42:26.363Z,0
2017-09-22T17:43:28.247Z,0
2017-09-22T17:44:30.142Z,0
2017-09-22T17:45:32.028Z,0
2017-09-22T17:46:46.213Z,0
2017-09-22T17:47:48.102Z,0
2017-09-22T17:48:49.987Z,0
2017-09-22T17:49:51.892Z,0
2017-09-22T17:50:53.898Z,0
2017-09-22T17:51:55.696Z,0
2017-09-22T17:52:57.594Z,0
2017-09-22T17:53:59.479Z,0
2017-09-22T17:55:01.364Z,0
2017-09-22T17:56:15.585Z,0
2017-09-22T17:57:17.470Z,0
2017-09-22T17:58:19.365Z,0
2017-09-22T17:59:21.253Z,0
2017-09-22T18:00:23.080Z,0
2017-09-22T18:01:24.900Z,0
2017-09-22T18:02:26.787Z,0
2017-09-22T18:03:28.678Z,0
2017-09-22T18:04:30.557Z,0
2017-09-22T18:05:44.766Z,0
2017-09-22T18:06:46.658Z,0
2017-09-22T18:07:48.540Z,0
2017-09-22T18:08:50.427Z,0
2017-09-22T18:09:52.252Z,0
2017-09-22T18:10:54.087Z,0
2017-09-22T18:11:55.969Z,0
2017-09-22T18:12:57.854Z,0
2017-09-22T18:13:59.741Z,0
2017-09-22T18:15:13.901Z,0
2017-09-22T18:16:15.802Z,0
2017-09-22T18:17:17.688Z,0
2017-09-22T18:18:19.578Z,0
2017-09-22T18:19:21.410Z,0
2017-09-22T18:20:23.234Z,0
2017-09-22T18:21:25.120Z,0
2017-09-22T18:22:27.005Z,0
2017-09-22T18:23:28.898Z,0
2017-09-22T18:24:43.057Z,0
2017-09-22T18:25:44.947Z,0
2017-09-22T18:26:46.832Z,0
2017-09-22T18:27:48.720Z,0
2017-09-22T18:28:50.538Z,0
2017-09-22T18:29:52.367Z,0
2017-09-22T18:30:54.211Z,0
2017-09-22T18:31:56.057Z,0
2017-09-22T18:32:57.888Z,0
2017-09-22T18:34:12.048Z,0
2017-09-22T18:35:13.936Z,0
2017-09-22T18:36:15.821Z,0
2017-09-22T18:37:17.709Z,0
2017-09-22T18:38:19.529Z,0
2017-09-22T18:39:21.356Z,0
2017-09-22T18:40:23.250Z,0
2017-09-22T18:41:25.135Z,0
2017-09-22T18:42:27.017Z,0
2017-09-22T18:43:41.177Z,0
2017-09-22T18:44:43.065Z,0
2017-09-22T18:45:44.951Z,0
2017-09-22T18:46:46.836Z,0
2017-09-22T18:47:48.666Z,0
2017-09-22T18:48:50.486Z,0
2017-09-22T18:49:52.384Z,0
2017-09-22T18:50:54.268Z,0
2017-09-22T18:51:56.184Z,0
2017-09-22T18:53:10.311Z,0
2017-09-22T18:54:12.196Z,0
2017-09-22T18:55:14.081Z,0
2017-09-22T18:56:15.964Z,0
2017-09-22T18:57:17.796Z,0
2017-09-22T18:58:19.625Z,0
2017-09-22T18:59:21.510Z,0
2017-09-22T19:00:23.395Z,0
2017-09-22T19:01:25.277Z,0
2017-09-22T19:02:39.437Z,0
2017-09-22T19:03:41.659Z,0
2017-09-22T19:04:43.511Z,0
2017-09-22T19:05:45.399Z,0
